Time;durP1;ratioP1;P1;durP2;ratioP2;P2;SDS_P1;SDS_P2;PMS_P1;PMS_P2;Temp;Humidity;BMP_temperature;BMP_pressure;BME280_temperature;BME280_humidity;BME280_pressure;Samples;Min_cycle;Max_cycle;Signal;HPM_P1;HPM_P2
2021/11/19 00:01:13;;;;;;;14.23;6.13;;;6.80;99.90;;;;;;5060127;28;20454;-76
2021/11/19 00:03:40;;;;;;;10.37;4.77;;;6.80;99.90;;;;;;5054402;28;20837;-76
2021/11/19 00:06:06;;;;;;;6.47;5.10;;;6.80;99.90;;;;;;5050230;28;20521;-75
2021/11/19 00:08:32;;;;;;;10.60;5.60;;;6.80;99.90;;;;;;5038777;28;20441;-76
2021/11/19 00:11:02;;;;;;;9.07;5.50;;;6.80;99.90;;;;;;5060911;28;20537;-76
2021/11/19 00:13:28;;;;;;;7.10;4.57;;;6.80;99.90;;;;;;5069357;28;20454;-75
2021/11/19 00:15:55;;;;;;;7.73;4.90;;;6.80;99.90;;;;;;5070258;28;20452;-76
2021/11/19 00:18:22;;;;;;;9.13;5.60;;;6.80;99.90;;;;;;5050063;28;20437;-76
2021/11/19 00:20:47;;;;;;;11.17;4.60;;;6.80;99.90;;;;;;5076587;28;20445;-75
2021/11/19 00:23:13;;;;;;;13.07;4.97;;;6.80;99.90;;;;;;5058711;28;20445;-76
2021/11/19 00:25:39;;;;;;;11.97;6.03;;;6.70;99.90;;;;;;5070733;28;20215;-76
2021/11/19 00:28:06;;;;;;;10.80;5.10;;;6.80;99.90;;;;;;5069783;28;20446;-76
2021/11/19 00:30:35;;;;;;;7.60;4.60;;;6.70;99.90;;;;;;5065295;28;20441;-76
2021/11/19 00:33:01;;;;;;;8.50;5.23;;;6.80;99.90;;;;;;5059110;28;20446;-76
2021/11/19 00:35:27;;;;;;;9.47;5.30;;;6.80;99.90;;;;;;5069314;28;20521;-76
2021/11/19 00:37:55;;;;;;;9.70;5.23;;;6.80;99.90;;;;;;5053007;28;20545;-76
2021/11/19 00:40:33;;;;;;;8.23;5.20;;;6.80;99.90;;;;;;5064028;28;20230;-76
2021/11/19 00:43:00;;;;;;;11.20;5.70;;;6.80;99.90;;;;;;5063393;28;20446;-76
2021/11/19 00:45:26;;;;;;;7.83;4.73;;;6.80;99.90;;;;;;5046257;28;20544;-76
2021/11/19 00:47:53;;;;;;;11.20;4.40;;;6.80;99.90;;;;;;5069785;28;20524;-77
2021/11/19 00:50:23;;;;;;;7.07;4.73;;;6.80;99.90;;;;;;5069526;28;20456;-76
2021/11/19 00:52:49;;;;;;;9.10;4.87;;;6.80;99.90;;;;;;5061532;28;20442;-75
2021/11/19 00:55:14;;;;;;;8.93;5.37;;;6.90;99.90;;;;;;5048038;28;20801;-76
2021/11/19 00:57:42;;;;;;;11.50;4.60;;;6.90;99.90;;;;;;5050322;28;20213;-76
2021/11/19 01:00:11;;;;;;;9.70;5.00;;;6.90;99.90;;;;;;5069458;28;20249;-76
2021/11/19 01:02:37;;;;;;;7.50;4.40;;;6.90;99.90;;;;;;5067933;28;20480;-77
2021/11/19 01:05:04;;;;;;;7.73;4.63;;;6.90;99.90;;;;;;5064740;28;20445;-77
2021/11/19 01:07:30;;;;;;;11.37;5.57;;;6.90;99.90;;;;;;5062502;28;20219;-76
2021/11/19 01:10:00;;;;;;;7.43;4.67;;;6.90;99.90;;;;;;5066078;28;20457;-76
2021/11/19 01:12:28;;;;;;;14.53;5.40;;;6.90;99.90;;;;;;5048370;28;20496;-77
2021/11/19 01:15:20;;;;;;;13.10;5.70;;;6.90;99.90;;;;;;5056564;28;20465;-77
2021/11/19 01:17:53;;;;;;;8.60;4.67;;;6.90;99.90;;;;;;5060449;28;20444;-76
2021/11/19 01:20:50;;;;;;;9.23;4.73;;;6.90;99.90;;;;;;5029315;28;20443;-76
2021/11/19 01:23:21;;;;;;;8.07;4.40;;;6.90;99.90;;;;;;5045332;28;20522;-75
2021/11/19 01:25:54;;;;;;;14.47;4.73;;;6.90;99.90;;;;;;5077519;28;20437;-76
2021/11/19 01:28:22;;;;;;;9.17;4.90;;;6.90;99.90;;;;;;5043235;28;20509;-76
2021/11/19 01:31:11;;;;;;;7.93;5.10;;;7.00;99.90;;;;;;5052062;28;20498;-76
2021/11/19 01:33:37;;;;;;;12.17;5.00;;;7.00;99.90;;;;;;5031479;28;20450;-76
2021/11/19 01:36:24;;;;;;;8.70;4.13;;;7.00;99.90;;;;;;5041448;28;20450;-76
2021/11/19 01:39:11;;;;;;;8.43;4.40;;;7.00;99.90;;;;;;5059957;28;20879;-76
2021/11/19 01:42:14;;;;;;;5.80;4.60;;;7.00;99.90;;;;;;5050355;28;20986;-74
2021/11/19 01:45:04;;;;;;;6.70;4.27;;;7.00;99.90;;;;;;5068626;28;20528;-76
2021/11/19 01:47:32;;;;;;;8.00;4.33;;;7.00;99.90;;;;;;5037157;28;20476;-77
2021/11/19 01:50:00;;;;;;;7.00;4.50;;;7.00;99.90;;;;;;5052573;28;20533;-76
2021/11/19 01:52:36;;;;;;;9.23;5.37;;;7.00;99.90;;;;;;5051518;28;20472;-76
2021/11/19 01:55:15;;;;;;;11.97;5.80;;;7.10;99.90;;;;;;5069157;28;20865;-76
2021/11/19 01:58:08;;;;;;;9.40;4.27;;;7.10;99.90;;;;;;5058418;28;20453;-76
2021/11/19 02:00:57;;;;;;;6.93;3.93;;;7.10;99.90;;;;;;5034511;28;20438;-76
2021/11/19 02:03:25;;;;;;;10.00;5.33;;;7.10;99.90;;;;;;5048576;28;20446;-76
2021/11/19 02:06:32;;;;;;;6.83;4.40;;;7.10;99.90;;;;;;5032459;28;20506;-76
2021/11/19 02:09:19;;;;;;;5.60;3.80;;;7.10;99.90;;;;;;5034484;28;20445;-76
2021/11/19 02:12:09;;;;;;;5.83;3.50;;;7.10;99.90;;;;;;5080085;28;20438;-76
2021/11/19 02:15:05;;;;;;;9.80;4.90;;;7.10;99.90;;;;;;5051855;28;20565;-77
2021/11/19 02:17:31;;;;;;;8.73;4.87;;;7.10;99.90;;;;;;5055537;28;20444;-76
2021/11/19 02:20:04;;;;;;;7.70;4.07;;;7.10;99.90;;;;;;5062051;28;20458;-76
2021/11/19 02:22:35;;;;;;;13.23;5.23;;;7.10;99.90;;;;;;5057363;28;20449;-76
2021/11/19 02:25:12;;;;;;;6.60;4.60;;;7.20;99.90;;;;;;5069162;28;20541;-76
2021/11/19 02:27:57;;;;;;;12.00;4.50;;;7.20;99.90;;;;;;5035213;28;20449;-76
2021/11/19 02:30:27;;;;;;;6.73;4.53;;;7.20;99.90;;;;;;5035714;28;20450;-76
2021/11/19 02:33:09;;;;;;;13.97;4.60;;;7.20;99.90;;;;;;5051940;28;20446;-76
2021/11/19 02:35:42;;;;;;;7.37;3.90;;;7.20;99.90;;;;;;5035011;28;20541;-76
2021/11/19 02:38:15;;;;;;;9.87;4.43;;;7.20;99.90;;;;;;5061293;28;20458;-76
2021/11/19 02:40:43;;;;;;;6.10;4.50;;;7.20;99.90;;;;;;5062209;28;20442;-76
2021/11/19 02:43:17;;;;;;;9.03;4.70;;;7.20;99.90;;;;;;5054474;28;20446;-76
2021/11/19 02:45:47;;;;;;;13.60;4.87;;;7.20;99.90;;;;;;5071609;28;20469;-76
2021/11/19 02:48:27;;;;;;;5.57;4.03;;;7.20;99.90;;;;;;5062846;28;20445;-76
2021/11/19 02:50:54;;;;;;;7.77;4.83;;;7.30;99.90;;;;;;5051427;28;20450;-77
2021/11/19 02:53:22;;;;;;;10.60;4.60;;;7.20;99.90;;;;;;5051416;28;20439;-76
2021/11/19 02:55:52;;;;;;;8.03;4.90;;;7.30;99.90;;;;;;5067895;28;20465;-76
2021/11/19 02:58:25;;;;;;;6.23;4.40;;;7.30;99.90;;;;;;5051791;28;20550;-76
2021/11/19 03:01:09;;;;;;;6.20;3.83;;;7.30;99.90;;;;;;5068218;28;20504;-76
2021/11/19 03:03:37;;;;;;;6.43;3.93;;;7.30;99.90;;;;;;5063505;28;20442;-77
2021/11/19 03:06:04;;;;;;;8.27;4.40;;;7.30;99.90;;;;;;5062849;28;20595;-77
2021/11/19 03:08:31;;;;;;;10.03;4.20;;;7.30;99.90;;;;;;5050700;28;20454;-76
2021/11/19 03:10:57;;;;;;;6.83;4.20;;;7.30;99.90;;;;;;5031546;28;20819;-76
2021/11/19 03:13:27;;;;;;;7.90;4.13;;;7.30;99.90;;;;;;5042684;28;21064;-77
2021/11/19 03:15:53;;;;;;;7.70;3.20;;;7.30;99.90;;;;;;5055282;28;20872;-77
2021/11/19 03:18:22;;;;;;;8.20;4.50;;;7.30;99.90;;;;;;5053928;28;20452;-76
2021/11/19 03:20:51;;;;;;;4.90;4.00;;;7.30;99.90;;;;;;5050169;28;20455;-75
2021/11/19 03:23:17;;;;;;;6.00;3.50;;;7.30;99.90;;;;;;5054222;28;20449;-75
2021/11/19 03:25:44;;;;;;;8.13;4.83;;;7.30;99.90;;;;;;5066557;28;20438;-77
2021/11/19 03:28:13;;;;;;;8.23;3.60;;;7.30;99.90;;;;;;5062645;28;20449;-76
2021/11/19 03:30:42;;;;;;;10.30;4.00;;;7.30;99.90;;;;;;5070585;28;20442;-76
2021/11/19 03:33:11;;;;;;;6.10;3.80;;;7.30;99.90;;;;;;5068359;28;20540;-76
2021/11/19 03:35:37;;;;;;;6.43;3.60;;;7.40;99.90;;;;;;5053502;28;20482;-76
2021/11/19 03:38:03;;;;;;;7.30;3.70;;;7.40;99.90;;;;;;5061033;28;20542;-76
2021/11/19 03:40:34;;;;;;;7.80;4.53;;;7.30;99.90;;;;;;5058736;28;20226;-76
2021/11/19 03:43:03;;;;;;;9.97;3.77;;;7.40;99.90;;;;;;5033867;28;20557;-76
2021/11/19 03:45:40;;;;;;;5.47;3.77;;;7.40;99.90;;;;;;5078284;28;20520;-75
2021/11/19 03:48:07;;;;;;;7.23;4.00;;;7.40;99.90;;;;;;5060380;28;20481;-76
2021/11/19 03:50:43;;;;;;;8.90;3.80;;;7.40;99.90;;;;;;5070054;28;20463;-76
2021/11/19 03:53:11;;;;;;;8.13;3.50;;;7.40;99.90;;;;;;5070506;28;21031;-76
2021/11/19 03:55:43;;;;;;;4.93;3.13;;;7.40;99.90;;;;;;5064174;28;20978;-76
2021/11/19 03:58:09;;;;;;;5.90;3.67;;;7.40;99.90;;;;;;5063265;28;20451;-73
2021/11/19 04:00:42;;;;;;;4.13;3.00;;;7.40;99.90;;;;;;5064436;28;20452;-76
2021/11/19 04:03:15;;;;;;;5.40;3.53;;;7.40;99.90;;;;;;5053843;28;20456;-75
2021/11/19 04:05:42;;;;;;;7.70;4.30;;;7.40;99.90;;;;;;5066561;28;20454;-75
2021/11/19 04:08:07;;;;;;;10.57;4.63;;;7.40;99.90;;;;;;5065189;28;20453;-75
2021/11/19 04:10:41;;;;;;;9.73;4.40;;;7.40;99.90;;;;;;5041924;28;20450;-75
2021/11/19 04:13:07;;;;;;;10.10;4.87;;;7.40;99.90;;;;;;5049747;28;20466;-75
2021/11/19 04:15:39;;;;;;;8.30;4.23;;;7.40;99.90;;;;;;5065596;28;20520;-76
2021/11/19 04:18:06;;;;;;;5.13;4.30;;;7.40;99.90;;;;;;5064047;28;20274;-75
2021/11/19 04:20:32;;;;;;;9.43;4.90;;;7.40;99.90;;;;;;5061040;28;20958;-74
2021/11/19 04:22:58;;;;;;;8.40;5.07;;;7.50;99.90;;;;;;5069786;28;20441;-75
2021/11/19 04:25:27;;;;;;;8.83;5.13;;;7.50;99.90;;;;;;5052941;28;20453;-75
2021/11/19 04:27:53;;;;;;;10.00;4.87;;;7.50;99.90;;;;;;5070961;28;21006;-75
2021/11/19 04:30:41;;;;;;;5.97;3.60;;;7.50;99.90;;;;;;5050265;28;20446;-74
2021/11/19 04:33:08;;;;;;;6.90;4.67;;;7.50;99.90;;;;;;5060364;28;20486;-76
2021/11/19 04:35:34;;;;;;;6.50;4.30;;;7.50;99.90;;;;;;5060730;28;20465;-75
2021/11/19 04:38:01;;;;;;;12.90;4.87;;;7.50;99.90;;;;;;5069900;28;20962;-76
2021/11/19 04:40:27;;;;;;;7.70;4.97;;;7.50;99.90;;;;;;5069458;28;20981;-76
2021/11/19 04:42:53;;;;;;;9.50;4.50;;;7.50;99.90;;;;;;5065942;28;20482;-76
2021/11/19 04:45:26;;;;;;;8.57;5.30;;;7.60;99.90;;;;;;5048428;28;20450;-74
2021/11/19 04:47:53;;;;;;;10.63;4.87;;;7.60;99.90;;;;;;5049333;28;20537;-75
2021/11/19 04:50:21;;;;;;;5.97;4.30;;;7.60;99.90;;;;;;5049428;28;20527;-75
2021/11/19 04:52:47;;;;;;;11.40;4.87;;;7.60;99.90;;;;;;5047887;28;20952;-75
2021/11/19 04:55:15;;;;;;;6.13;3.87;;;7.60;99.90;;;;;;5060120;28;20545;-76
2021/11/19 04:57:41;;;;;;;8.40;4.37;;;7.60;99.90;;;;;;5064400;28;20519;-75
2021/11/19 05:00:38;;;;;;;10.00;5.77;;;7.60;99.90;;;;;;5069720;28;20533;-76
2021/11/19 05:03:13;;;;;;;12.17;4.90;;;7.60;99.90;;;;;;5066960;28;20449;-75
2021/11/19 05:05:41;;;;;;;8.50;4.87;;;7.60;99.90;;;;;;5061726;28;20451;-75
2021/11/19 05:08:08;;;;;;;13.00;5.93;;;7.60;99.90;;;;;;5075818;28;20458;-76
2021/11/19 05:10:35;;;;;;;8.67;4.97;;;7.60;99.90;;;;;;5028770;28;20444;-75
2021/11/19 05:13:03;;;;;;;11.97;5.73;;;7.60;99.90;;;;;;5033591;28;20469;-75
2021/11/19 05:15:35;;;;;;;12.27;4.90;;;7.60;99.90;;;;;;5064585;28;20457;-76
2021/11/19 05:18:00;;;;;;;11.67;6.03;;;7.60;99.90;;;;;;5043909;28;20950;-76
2021/11/19 05:20:27;;;;;;;16.17;5.53;;;7.70;99.90;;;;;;5068593;28;20468;-76
2021/11/19 05:22:54;;;;;;;10.63;4.90;;;7.70;99.90;;;;;;5052148;28;20237;-75
2021/11/19 05:25:22;;;;;;;14.93;4.50;;;7.70;99.90;;;;;;5069144;28;20441;-75
2021/11/19 05:27:49;;;;;;;8.43;5.17;;;7.70;99.90;;;;;;5051718;28;20441;-75
2021/11/19 05:30:16;;;;;;;11.20;5.77;;;7.70;99.90;;;;;;5068223;28;20495;-75
2021/11/19 05:33:03;;;;;;;8.93;4.83;;;7.70;99.90;;;;;;5075153;28;20445;-75
2021/11/19 05:35:29;;;;;;;9.20;5.47;;;7.70;99.90;;;;;;5068213;28;20825;-75
2021/11/19 05:37:55;;;;;;;7.40;5.30;;;7.70;99.90;;;;;;5052230;28;20537;-76
2021/11/19 05:40:22;;;;;;;13.13;5.87;;;7.70;99.90;;;;;;5068863;28;20526;-76
2021/11/19 05:42:48;;;;;;;10.07;5.50;;;7.70;99.90;;;;;;5065946;28;20218;-76
2021/11/19 05:45:16;;;;;;;11.43;5.90;;;7.70;99.90;;;;;;5062811;28;21026;-77
2021/11/19 05:48:01;;;;;;;9.40;5.60;;;7.70;99.90;;;;;;5086907;28;20476;-75
2021/11/19 05:50:31;;;;;;;16.53;6.30;;;7.70;99.90;;;;;;5072367;28;20506;-75
2021/11/19 05:53:02;;;;;;;11.20;5.20;;;7.70;99.90;;;;;;5084244;28;20445;-74
2021/11/19 05:55:31;;;;;;;13.17;6.10;;;7.80;99.90;;;;;;5070864;28;20474;-76
2021/11/19 05:57:57;;;;;;;14.40;5.60;;;7.80;99.90;;;;;;5087155;28;20457;-75
2021/11/19 06:00:26;;;;;;;10.53;6.07;;;7.80;99.90;;;;;;5072569;28;20445;-75
2021/11/19 06:03:01;;;;;;;13.37;7.30;;;7.80;99.90;;;;;;5071989;28;20294;-76
2021/11/19 06:05:31;;;;;;;15.13;7.73;;;7.80;99.90;;;;;;5082541;28;20470;-76
2021/11/19 06:08:16;;;;;;;12.13;7.03;;;7.80;99.90;;;;;;5070817;28;20498;-76
2021/11/19 06:10:52;;;;;;;15.50;8.43;;;7.80;99.90;;;;;;5072005;28;20522;-75
2021/11/19 06:13:28;;;;;;;15.33;7.57;;;7.80;99.90;;;;;;5038705;28;20453;-74
2021/11/19 06:16:07;;;;;;;17.17;7.87;;;7.80;99.90;;;;;;5073654;28;20460;-75
2021/11/19 06:18:38;;;;;;;22.20;7.47;;;7.80;99.90;;;;;;5092001;28;20523;-75
2021/11/19 06:21:07;;;;;;;14.70;7.17;;;7.80;99.90;;;;;;5052884;28;20461;-75
2021/11/19 06:23:41;;;;;;;17.73;8.87;;;7.80;99.90;;;;;;5050539;28;20446;-74
2021/11/19 06:26:09;;;;;;;16.53;7.63;;;7.80;99.90;;;;;;5048469;28;20857;-75
2021/11/19 06:28:42;;;;;;;13.33;7.03;;;7.80;99.90;;;;;;5041976;28;20454;-75
2021/11/19 06:31:15;;;;;;;18.53;8.30;;;7.80;99.90;;;;;;5029986;28;20465;-76
2021/11/19 06:33:41;;;;;;;11.50;6.50;;;7.80;99.90;;;;;;5055155;28;20442;-76
2021/11/19 06:36:08;;;;;;;14.87;7.80;;;7.80;99.90;;;;;;5047728;28;20471;-77
2021/11/19 06:38:35;;;;;;;15.03;7.33;;;7.80;99.90;;;;;;5043889;28;21195;-76
2021/11/19 06:41:06;;;;;;;15.67;7.87;;;7.80;99.90;;;;;;5051546;28;20453;-76
2021/11/19 06:43:51;;;;;;;17.43;8.00;;;7.80;99.90;;;;;;5071275;28;20492;-76
2021/11/19 06:46:46;;;;;;;10.83;6.70;;;7.80;99.90;;;;;;5060728;28;20453;-75
2021/11/19 06:49:37;;;;;;;17.57;9.20;;;7.80;99.90;;;;;;5079689;28;20521;-75
2021/11/19 06:52:22;;;;;;;18.60;9.00;;;7.80;99.90;;;;;;5101543;28;20501;-76
2021/11/19 06:55:08;;;;;;;13.90;8.40;;;7.80;99.90;;;;;;5104887;28;20525;-76
2021/11/19 06:57:51;;;;;;;15.60;8.17;;;7.80;99.90;;;;;;5081907;28;20465;-76
2021/11/19 07:00:28;;;;;;;18.97;8.27;;;7.80;99.90;;;;;;5078928;28;20464;-77
2021/11/19 07:02:56;;;;;;;17.47;8.10;;;7.80;99.90;;;;;;5040911;28;20454;-76
2021/11/19 07:05:22;;;;;;;17.50;9.10;;;7.80;99.90;;;;;;5048850;28;20467;-74
2021/11/19 07:07:48;;;;;;;20.47;8.67;;;7.80;99.90;;;;;;5047122;28;20466;-76
2021/11/19 07:10:17;;;;;;;15.83;8.33;;;7.80;99.90;;;;;;5048295;28;20477;-75
2021/11/19 07:12:43;;;;;;;18.73;8.40;;;7.80;99.90;;;;;;5047550;28;20451;-74
2021/11/19 07:15:13;;;;;;;14.97;8.40;;;7.80;99.90;;;;;;5049089;28;20589;-76
2021/11/19 07:17:39;;;;;;;19.77;8.37;;;7.80;99.90;;;;;;5048784;28;20469;-75
2021/11/19 07:20:07;;;;;;;22.37;9.83;;;7.80;99.90;;;;;;5054468;28;20465;-76
2021/11/19 07:22:33;;;;;;;22.67;9.13;;;7.80;99.90;;;;;;5063076;28;20452;-75
2021/11/19 07:25:05;;;;;;;18.20;9.50;;;7.80;99.90;;;;;;5052003;28;20457;-75
2021/11/19 07:27:31;;;;;;;14.70;8.57;;;7.80;99.90;;;;;;5049319;28;20464;-75
2021/11/19 07:29:56;;;;;;;27.30;9.93;;;7.80;99.90;;;;;;5048648;28;20541;-75
2021/11/19 07:32:41;;;;;;;16.57;9.10;;;7.80;99.90;;;;;;5053443;28;20449;-75
2021/11/19 07:35:26;;;;;;;21.33;8.80;;;7.80;99.90;;;;;;5050211;28;20473;-75
2021/11/19 07:38:30;;;;;;;17.67;8.73;;;7.80;99.90;;;;;;5032827;28;20482;-75
2021/11/19 07:41:15;;;;;;;18.67;9.60;;;7.80;99.90;;;;;;5057064;28;20465;-75
2021/11/19 07:43:52;;;;;;;20.97;9.57;;;7.80;99.90;;;;;;5049425;28;20869;-77
2021/11/19 07:46:30;;;;;;;17.17;8.47;;;7.90;99.90;;;;;;5030318;28;20455;-74
2021/11/19 07:49:03;;;;;;;16.47;8.20;;;7.80;99.90;;;;;;5060312;28;20462;-75
2021/11/19 07:51:33;;;;;;;14.70;8.60;;;7.80;99.90;;;;;;5039318;28;20816;-77
2021/11/19 07:54:01;;;;;;;20.40;8.73;;;7.90;99.90;;;;;;5061871;28;20480;-75
2021/11/19 07:56:31;;;;;;;14.53;8.00;;;7.80;99.90;;;;;;5063378;28;20454;-76
2021/11/19 07:59:07;;;;;;;16.50;9.10;;;7.90;99.90;;;;;;5033979;28;20529;-76
2021/11/19 08:01:33;;;;;;;19.70;8.63;;;7.90;99.90;;;;;;5054173;28;20441;-76
2021/11/19 08:03:59;;;;;;;20.63;9.40;;;7.90;99.90;;;;;;5065862;28;20437;-76
2021/11/19 08:06:28;;;;;;;22.00;9.00;;;7.90;99.90;;;;;;5056273;28;20505;-76
2021/11/19 08:09:14;;;;;;;20.80;8.40;;;7.90;99.90;;;;;;5042230;28;20673;-75
2021/11/19 08:11:45;;;;;;;13.83;7.50;;;7.90;99.90;;;;;;5033465;28;20434;-76
2021/11/19 08:14:11;;;;;;;16.83;8.20;;;7.90;99.90;;;;;;5032726;28;20465;-76
2021/11/19 08:16:43;;;;;;;13.00;7.57;;;7.90;99.90;;;;;;5081584;28;20224;-75
2021/11/19 08:19:43;;;;;;;19.50;8.00;;;7.90;99.90;;;;;;5069991;28;20218;-75
2021/11/19 08:22:10;;;;;;;13.33;7.23;;;7.90;99.90;;;;;;5060224;28;20528;-77
2021/11/19 08:24:36;;;;;;;17.77;9.23;;;7.90;99.90;;;;;;5056080;28;20955;-76
2021/11/19 08:27:09;;;;;;;19.10;9.50;;;8.00;99.90;;;;;;5061106;28;20461;-76
2021/11/19 08:29:38;;;;;;;17.70;9.83;;;8.00;99.90;;;;;;5069159;28;20222;-76
2021/11/19 08:32:05;;;;;;;17.10;8.60;;;8.00;99.90;;;;;;5059201;28;20461;-76
2021/11/19 08:34:31;;;;;;;19.00;8.80;;;8.00;99.90;;;;;;5048779;28;20470;-75
2021/11/19 08:36:57;;;;;;;15.10;8.17;;;8.00;99.90;;;;;;5049630;28;20820;-76
2021/11/19 08:39:25;;;;;;;16.50;8.30;;;8.00;99.90;;;;;;5049325;28;20971;-76
2021/11/19 08:41:53;;;;;;;22.93;8.60;;;8.00;99.90;;;;;;5048529;28;20492;-76
2021/11/19 08:44:20;;;;;;;14.40;7.60;;;8.00;99.90;;;;;;5051587;28;20540;-75
2021/11/19 08:46:48;;;;;;;17.90;8.53;;;8.00;99.90;;;;;;5061307;28;20457;-75
2021/11/19 08:49:19;;;;;;;17.90;7.70;;;8.10;99.90;;;;;;5068693;28;20485;-74
2021/11/19 08:51:45;;;;;;;16.03;8.00;;;8.10;99.90;;;;;;5067585;28;20499;-75
2021/11/19 08:54:16;;;;;;;13.40;7.07;;;8.10;99.90;;;;;;5054938;28;20473;-74
2021/11/19 08:56:49;;;;;;;12.00;6.80;;;8.10;99.90;;;;;;5063725;28;20449;-74
2021/11/19 08:59:17;;;;;;;12.27;7.70;;;8.10;99.90;;;;;;5028937;28;20825;-75
2021/11/19 09:01:47;;;;;;;9.77;5.97;;;8.10;99.90;;;;;;5028077;28;20439;-76
2021/11/19 09:04:13;;;;;;;15.10;7.63;;;8.10;99.90;;;;;;5046234;28;20453;-75
2021/11/19 09:06:39;;;;;;;10.07;6.07;;;8.20;99.90;;;;;;5052284;28;20465;-77
2021/11/19 09:09:07;;;;;;;12.60;7.00;;;8.20;99.90;;;;;;5055098;28;20451;-76
2021/11/19 09:11:34;;;;;;;14.70;7.73;;;8.20;99.90;;;;;;5029342;28;21041;-76
2021/11/19 09:14:00;;;;;;;14.23;7.67;;;8.20;99.90;;;;;;5053904;28;20517;-77
2021/11/19 09:16:38;;;;;;;13.97;7.53;;;8.20;99.90;;;;;;5045335;28;20455;-75
2021/11/19 09:19:08;;;;;;;15.40;6.60;;;8.30;99.90;;;;;;5044996;28;20481;-76
2021/11/19 09:21:48;;;;;;;14.10;7.90;;;8.30;99.90;;;;;;5047020;28;20455;-76
2021/11/19 09:24:20;;;;;;;9.63;6.30;;;8.30;99.90;;;;;;5030068;28;20457;-75
2021/11/19 09:27:10;;;;;;;13.10;7.73;;;8.30;99.90;;;;;;5060830;28;20536;-76
2021/11/19 09:29:42;;;;;;;11.43;6.57;;;8.40;99.90;;;;;;5053777;28;20454;-76
2021/11/19 09:32:10;;;;;;;11.63;7.10;;;8.40;99.90;;;;;;5029925;28;21098;-77
2021/11/19 09:34:38;;;;;;;12.00;7.00;;;8.40;99.90;;;;;;5024467;28;20520;-76
2021/11/19 09:37:06;;;;;;;13.17;6.23;;;8.40;99.90;;;;;;5058286;28;20449;-76
2021/11/19 09:39:33;;;;;;;10.80;5.90;;;8.50;99.90;;;;;;5057489;28;20449;-75
2021/11/19 09:42:07;;;;;;;7.97;5.07;;;8.50;99.90;;;;;;5030160;28;20450;-76
2021/11/19 09:45:00;;;;;;;10.70;5.30;;;8.50;99.90;;;;;;5044774;28;20523;-76
2021/11/19 09:47:29;;;;;;;9.43;6.07;;;8.50;99.90;;;;;;5057405;28;20483;-76
2021/11/19 09:50:29;;;;;;;7.03;4.73;;;8.60;99.90;;;;;;5049858;28;21022;-77
2021/11/19 09:53:13;;;;;;;8.97;4.70;;;8.60;99.90;;;;;;5045196;28;20537;-76
2021/11/19 09:55:55;;;;;;;7.73;5.10;;;8.60;99.90;;;;;;5057766;28;20470;-75
2021/11/19 09:58:34;;;;;;;8.63;5.07;;;8.60;99.90;;;;;;5030206;28;20458;-76
2021/11/19 10:01:33;;;;;;;7.77;3.93;;;8.70;99.90;;;;;;5041627;28;20453;-74
2021/11/19 10:04:36;;;;;;;8.27;4.40;;;8.70;99.90;;;;;;5034671;28;20457;-75
2021/11/19 10:07:35;;;;;;;6.03;4.53;;;8.70;99.90;;;;;;5082043;28;20821;-76
2021/11/19 10:10:35;;;;;;;8.90;4.40;;;8.70;99.90;;;;;;5043336;28;20898;-76
2021/11/19 10:13:15;;;;;;;7.70;4.13;;;8.80;99.90;;;;;;5041449;28;20459;-76
2021/11/19 10:15:46;;;;;;;7.53;4.20;;;8.80;99.90;;;;;;5060722;28;20470;-76
2021/11/19 10:18:15;;;;;;;9.27;4.00;;;8.80;99.90;;;;;;5070840;28;20470;-75
2021/11/19 10:20:52;;;;;;;7.37;3.80;;;8.90;99.90;;;;;;5068213;28;20438;-76
2021/11/19 10:23:26;;;;;;;7.53;3.73;;;8.90;99.90;;;;;;5058916;28;20954;-75
2021/11/19 10:26:04;;;;;;;5.63;3.80;;;9.00;99.90;;;;;;5021365;28;20454;-76
2021/11/19 10:29:23;;;;;;;8.50;3.90;;;9.00;99.90;;;;;;5062580;28;20445;-76
2021/11/19 10:31:51;;;;;;;3.60;3.03;;;9.00;99.90;;;;;;5026397;28;20442;-76
2021/11/19 10:34:29;;;;;;;4.27;3.27;;;9.00;99.90;;;;;;5012383;28;20472;-78
2021/11/19 10:37:12;;;;;;;5.17;3.50;;;9.10;99.90;;;;;;5051336;28;20459;-76
2021/11/19 10:39:52;;;;;;;8.10;4.03;;;9.10;99.90;;;;;;5068239;28;20453;-76
2021/11/19 10:42:27;;;;;;;7.27;4.80;;;9.10;99.90;;;;;;5041160;28;20465;-75
2021/11/19 10:44:58;;;;;;;5.80;4.37;;;9.10;99.90;;;;;;5048234;28;20442;-76
2021/11/19 10:47:52;;;;;;;6.73;3.80;;;9.20;99.90;;;;;;5048551;28;20462;-75
2021/11/19 10:50:42;;;;;;;6.20;4.17;;;9.20;99.90;;;;;;5067004;28;20530;-76
2021/11/19 10:53:45;;;;;;;5.30;3.83;;;9.20;99.90;;;;;;5067894;28;20519;-76
2021/11/19 10:56:14;;;;;;;5.83;4.27;;;9.30;99.90;;;;;;5067970;28;20568;-76
2021/11/19 10:59:26;;;;;;;3.73;3.33;;;9.30;99.90;;;;;;5050530;28;20457;-76
2021/11/19 11:02:02;;;;;;;4.73;3.80;;;9.30;99.90;;;;;;5082074;28;20457;-76
2021/11/19 11:04:38;;;;;;;6.87;3.40;;;9.30;99.90;;;;;;5061008;28;20453;-76
2021/11/19 11:07:17;;;;;;;7.43;4.00;;;9.40;99.90;;;;;;5050889;28;20511;-75
2021/11/19 11:09:58;;;;;;;6.27;4.70;;;9.40;99.90;;;;;;5065066;28;20961;-76
2021/11/19 11:12:45;;;;;;;4.00;3.40;;;9.40;99.90;;;;;;5058675;28;20508;-75
2021/11/19 11:15:14;;;;;;;7.73;4.60;;;9.40;99.90;;;;;;5067266;28;20536;-76
2021/11/19 11:18:04;;;;;;;36.07;26.73;;;9.50;99.90;;;;;;5067255;28;20458;-76
2021/11/19 11:20:39;;;;;;;34.83;27.57;;;9.50;99.90;;;;;;5049708;28;20464;-74
2021/11/19 11:23:43;;;;;;;19.27;15.83;;;9.50;99.90;;;;;;5049946;28;20453;-77
2021/11/19 11:26:39;;;;;;;37.37;18.77;;;9.50;99.90;;;;;;5067532;28;20466;-76
2021/11/19 11:29:08;;;;;;;40.47;20.33;;;9.50;99.90;;;;;;5067201;28;20485;-75
2021/11/19 11:31:52;;;;;;;20.67;10.90;;;9.50;99.90;;;;;;5049173;28;20640;-76
2021/11/19 11:34:37;;;;;;;8.53;5.50;;;9.50;99.90;;;;;;5065132;28;20481;-76
2021/11/19 11:37:17;;;;;;;8.60;6.30;;;9.50;99.90;;;;;;5051191;28;20453;-76
2021/11/19 11:39:56;;;;;;;8.70;5.70;;;9.50;99.90;;;;;;5066583;28;20450;-76
2021/11/19 11:42:37;;;;;;;4.20;3.30;;;9.60;99.90;;;;;;5066132;28;20453;-75
2021/11/19 11:45:32;;;;;;;4.47;2.57;;;9.60;99.90;;;;;;5052208;28;20445;-76
2021/11/19 11:48:09;;;;;;;3.80;2.50;;;9.60;99.90;;;;;;5067870;28;20461;-74
2021/11/19 11:50:51;;;;;;;2.43;2.23;;;9.60;99.90;;;;;;5049898;28;20448;-74
2021/11/19 11:53:23;;;;;;;3.10;2.30;;;9.60;99.90;;;;;;5063488;28;20518;-75
2021/11/19 11:56:07;;;;;;;2.93;2.30;;;9.60;99.90;;;;;;5066407;28;20477;-76
2021/11/19 11:58:54;;;;;;;3.80;2.00;;;9.60;99.90;;;;;;5066508;28;20991;-76
2021/11/19 12:01:32;;;;;;;1.93;1.53;;;9.60;99.90;;;;;;5065904;28;20461;-78
2021/11/19 12:04:27;;;;;;;2.10;1.63;;;9.60;99.90;;;;;;5064908;28;20453;-76
2021/11/19 12:07:35;;;;;;;2.80;2.13;;;9.60;99.90;;;;;;5065568;28;20485;-76
2021/11/19 12:10:35;;;;;;;4.70;2.30;;;9.70;99.90;;;;;;5012962;28;20969;-75
2021/11/19 12:13:26;;;;;;;3.93;2.13;;;9.70;99.90;;;;;;5065214;28;20454;-76
2021/11/19 12:16:10;;;;;;;2.50;1.70;;;9.70;99.90;;;;;;5062786;28;20521;-77
2021/11/19 12:18:57;;;;;;;3.10;1.90;;;9.70;99.90;;;;;;5046181;28;20980;-75
2021/11/19 12:21:40;;;;;;;5.37;4.17;;;9.70;99.90;;;;;;5063767;28;20462;-76
2021/11/19 12:24:45;;;;;;;14.47;8.20;;;9.70;99.90;;;;;;5062546;28;20449;-76
2021/11/19 12:27:34;;;;;;;8.67;7.47;;;9.70;99.90;;;;;;5043485;28;20449;-76
2021/11/19 12:30:11;;;;;;;11.03;7.47;;;9.80;99.90;;;;;;5066132;28;20460;-76
2021/11/19 12:32:44;;;;;;;6.40;5.23;;;9.80;99.90;;;;;;5065221;28;20454;-76
2021/11/19 12:35:24;;;;;;;4.70;4.23;;;9.80;99.90;;;;;;5064924;28;20468;-76
2021/11/19 12:37:53;;;;;;;4.00;3.67;;;9.80;99.90;;;;;;5065771;28;20829;-75
2021/11/19 12:40:39;;;;;;;3.90;3.00;;;9.80;99.90;;;;;;5050475;28;20458;-77
2021/11/19 12:43:20;;;;;;;3.30;2.80;;;9.90;99.90;;;;;;5065905;28;20461;-76
2021/11/19 12:46:12;;;;;;;2.70;2.50;;;9.90;99.90;;;;;;5064505;28;20454;-76
2021/11/19 12:48:52;;;;;;;2.80;2.47;;;9.90;99.90;;;;;;5077176;28;20523;-76
2021/11/19 12:51:38;;;;;;;7.33;2.87;;;9.90;99.90;;;;;;5049053;28;20456;-75
2021/11/19 12:54:22;;;;;;;8.57;6.37;;;10.00;99.90;;;;;;5048127;28;20449;-76
2021/11/19 12:57:16;;;;;;;13.97;10.43;;;10.00;99.90;;;;;;5046741;28;20454;-76
2021/11/19 13:00:07;;;;;;;22.20;13.77;;;10.00;99.90;;;;;;5045286;28;20529;-78
2021/11/19 13:02:37;;;;;;;11.40;9.60;;;10.10;99.90;;;;;;5062305;28;20454;-76
2021/11/19 13:05:12;;;;;;;10.53;8.30;;;10.10;99.90;;;;;;5065721;28;20453;-75
2021/11/19 13:08:10;;;;;;;8.17;5.83;;;10.10;99.90;;;;;;5048307;28;20453;-77
2021/11/19 13:10:40;;;;;;;4.30;3.27;;;10.10;99.90;;;;;;5060063;28;20457;-74
2021/11/19 13:13:28;;;;;;;3.00;2.57;;;10.10;99.90;;;;;;5065674;28;20516;-77
2021/11/19 13:16:22;;;;;;;3.40;3.10;;;10.20;99.90;;;;;;5064111;28;21281;-76
2021/11/19 13:18:50;;;;;;;3.77;2.60;;;10.20;99.90;;;;;;5065179;28;20489;-76
2021/11/19 13:21:34;;;;;;;4.33;3.10;;;10.20;99.90;;;;;;5066208;28;20845;-74
2021/11/19 13:24:12;;;;;;;7.77;5.13;;;10.20;99.90;;;;;;5068207;28;20472;-76
2021/11/19 13:26:45;;;;;;;10.20;5.77;;;10.20;99.90;;;;;;5049118;28;20498;-76
2021/11/19 13:29:44;;;;;;;5.70;3.00;;;10.20;99.90;;;;;;5067266;28;20456;-77
2021/11/19 13:32:19;;;;;;;5.20;3.80;;;10.20;99.90;;;;;;5063693;28;20482;-75